Stead, Nevada
Current Conditions -  °F | °C
As of 2:15 PM on Monday 20 Oct 2014 (Local Time) from KRTS Reporting Station
Few Clouds Few Clouds  
Wind Chill: 66°   Ceiling: Unl
Heat Index: 66°   Visibility: 10mi
Dew Point: 28°   Wind: 15mph
Humidity: 24%   Direction: 250°WSW
Pressure: 29.93"   Gusts: 24mph
Location:  39.7378°N, 119.889°W
Report Text: KRTS 202115Z AUTO 25013G21KT 10SM FEW075 19/M02 A2993 RMK AO2
Loading
Personal Weather Stations






























Interactive Weather Map New forecast layout! Learn more

10-Day Weather Forecast

Advertisements
Track Severe Weather on mobile